sensor_id;sensor_type;location;lat;lon;timestamp;temperature;humidity
21778;DHT22;11050;52.222;20.916;2022-11-10T00:01:05;6.90;99.90
21778;DHT22;11050;52.222;20.916;2022-11-10T00:03:37;6.90;99.90
21778;DHT22;11050;52.222;20.916;2022-11-10T00:06:05;6.90;99.90
21778;DHT22;11050;52.222;20.916;2022-11-10T00:08:32;7.00;99.90
21778;DHT22;11050;52.222;20.916;2022-11-10T00:11:03;7.00;99.90
21778;DHT22;11050;52.222;20.916;2022-11-10T00:13:35;7.00;99.90
21778;DHT22;11050;52.222;20.916;2022-11-10T00:16:24;6.90;99.90
21778;DHT22;11050;52.222;20.916;2022-11-10T00:19:09;6.90;99.90
21778;DHT22;11050;52.222;20.916;2022-11-10T00:21:34;6.90;99.90
21778;DHT22;11050;52.222;20.916;2022-11-10T00:24:04;6.90;99.90
21778;DHT22;11050;52.222;20.916;2022-11-10T00:26:29;6.90;99.90
21778;DHT22;11050;52.222;20.916;2022-11-10T00:28:55;6.90;99.90
21778;DHT22;11050;52.222;20.916;2022-11-10T00:31:21;6.90;99.90
21778;DHT22;11050;52.222;20.916;2022-11-10T00:33:47;6.90;99.90
21778;DHT22;11050;52.222;20.916;2022-11-10T00:36:12;6.90;99.90
21778;DHT22;11050;52.222;20.916;2022-11-10T00:38:38;6.80;99.90
21778;DHT22;11050;52.222;20.916;2022-11-10T00:41:04;6.90;99.90
21778;DHT22;11050;52.222;20.916;2022-11-10T00:43:30;6.90;99.90
21778;DHT22;11050;52.222;20.916;2022-11-10T00:45:56;6.80;99.90
21778;DHT22;11050;52.222;20.916;2022-11-10T00:48:23;6.90;99.90
21778;DHT22;11050;52.222;20.916;2022-11-10T00:50:49;6.90;99.90
21778;DHT22;11050;52.222;20.916;2022-11-10T00:53:15;6.90;99.90
21778;DHT22;11050;52.222;20.916;2022-11-10T00:55:41;6.90;99.90
21778;DHT22;11050;52.222;20.916;2022-11-10T00:58:08;6.90;99.90
21778;DHT22;11050;52.222;20.916;2022-11-10T01:00:34;6.90;99.90
21778;DHT22;11050;52.222;20.916;2022-11-10T01:02:59;6.90;99.90
21778;DHT22;11050;52.222;20.916;2022-11-10T01:05:27;6.90;99.90
21778;DHT22;11050;52.222;20.916;2022-11-10T01:07:54;7.00;99.90
21778;DHT22;11050;52.222;20.916;2022-11-10T01:10:21;7.00;99.90
21778;DHT22;11050;52.222;20.916;2022-11-10T01:12:46;7.00;99.90
21778;DHT22;11050;52.222;20.916;2022-11-10T01:15:12;7.00;99.90
21778;DHT22;11050;52.222;20.916;2022-11-10T01:17:38;7.00;99.90
21778;DHT22;11050;52.222;20.916;2022-11-10T01:20:04;7.10;99.90
21778;DHT22;11050;52.222;20.916;2022-11-10T01:22:33;7.10;99.90
21778;DHT22;11050;52.222;20.916;2022-11-10T01:24:59;7.10;99.90
21778;DHT22;11050;52.222;20.916;2022-11-10T01:27:25;7.20;99.90
21778;DHT22;11050;52.222;20.916;2022-11-10T01:29:51;7.20;99.90
21778;DHT22;11050;52.222;20.916;2022-11-10T01:32:16;7.20;99.90
21778;DHT22;11050;52.222;20.916;2022-11-10T01:34:43;7.20;99.90
21778;DHT22;11050;52.222;20.916;2022-11-10T01:37:11;7.20;99.90
21778;DHT22;11050;52.222;20.916;2022-11-10T01:39:37;7.30;99.90
21778;DHT22;11050;52.222;20.916;2022-11-10T01:42:03;7.30;99.90
21778;DHT22;11050;52.222;20.916;2022-11-10T01:44:29;7.30;99.90
21778;DHT22;11050;52.222;20.916;2022-11-10T01:46:55;7.30;99.90
21778;DHT22;11050;52.222;20.916;2022-11-10T01:49:23;7.30;99.90
21778;DHT22;11050;52.222;20.916;2022-11-10T01:54:43;7.40;99.90
21778;DHT22;11050;52.222;20.916;2022-11-10T01:57:14;7.40;99.90
21778;DHT22;11050;52.222;20.916;2022-11-10T01:59:45;7.40;99.90
21778;DHT22;11050;52.222;20.916;2022-11-10T02:02:20;7.50;99.90
21778;DHT22;11050;52.222;20.916;2022-11-10T02:04:52;7.40;99.90
21778;DHT22;11050;52.222;20.916;2022-11-10T02:07:18;7.40;99.90
21778;DHT22;11050;52.222;20.916;2022-11-10T02:09:47;7.50;99.90
21778;DHT22;11050;52.222;20.916;2022-11-10T02:12:13;7.50;99.90
21778;DHT22;11050;52.222;20.916;2022-11-10T02:14:40;7.50;99.90
21778;DHT22;11050;52.222;20.916;2022-11-10T02:17:07;7.50;99.90
21778;DHT22;11050;52.222;20.916;2022-11-10T02:19:40;7.60;99.90
21778;DHT22;11050;52.222;20.916;2022-11-10T02:22:06;7.60;99.90
21778;DHT22;11050;52.222;20.916;2022-11-10T02:24:32;7.60;99.90
21778;DHT22;11050;52.222;20.916;2022-11-10T02:26:58;7.60;99.90
21778;DHT22;11050;52.222;20.916;2022-11-10T02:29:25;7.70;99.90
21778;DHT22;11050;52.222;20.916;2022-11-10T02:31:51;7.70;99.90
21778;DHT22;11050;52.222;20.916;2022-11-10T02:34:17;7.70;99.90
21778;DHT22;11050;52.222;20.916;2022-11-10T02:36:42;7.70;99.90
21778;DHT22;11050;52.222;20.916;2022-11-10T02:39:08;7.70;99.90
21778;DHT22;11050;52.222;20.916;2022-11-10T02:41:34;7.70;99.90
21778;DHT22;11050;52.222;20.916;2022-11-10T02:44:02;7.70;99.90
21778;DHT22;11050;52.222;20.916;2022-11-10T02:46:29;7.70;99.90
21778;DHT22;11050;52.222;20.916;2022-11-10T02:48:55;7.70;99.90
21778;DHT22;11050;52.222;20.916;2022-11-10T02:51:21;7.70;99.90
21778;DHT22;11050;52.222;20.916;2022-11-10T02:53:47;7.70;99.90
21778;DHT22;11050;52.222;20.916;2022-11-10T02:56:14;7.80;99.90
21778;DHT22;11050;52.222;20.916;2022-11-10T02:58:40;7.80;99.90
21778;DHT22;11050;52.222;20.916;2022-11-10T03:01:06;7.80;99.90
21778;DHT22;11050;52.222;20.916;2022-11-10T03:03:32;7.80;99.90
21778;DHT22;11050;52.222;20.916;2022-11-10T03:05:58;7.80;99.90
21778;DHT22;11050;52.222;20.916;2022-11-10T03:08:24;7.80;99.90
21778;DHT22;11050;52.222;20.916;2022-11-10T03:10:54;7.80;99.90
21778;DHT22;11050;52.222;20.916;2022-11-10T03:13:22;7.80;99.90
21778;DHT22;11050;52.222;20.916;2022-11-10T03:15:49;7.90;99.90
21778;DHT22;11050;52.222;20.916;2022-11-10T03:18:15;7.90;99.90
21778;DHT22;11050;52.222;20.916;2022-11-10T03:20:41;8.00;99.90
21778;DHT22;11050;52.222;20.916;2022-11-10T03:23:08;8.00;99.90
21778;DHT22;11050;52.222;20.916;2022-11-10T03:25:33;8.00;99.90
21778;DHT22;11050;52.222;20.916;2022-11-10T03:27:59;8.00;99.90
21778;DHT22;11050;52.222;20.916;2022-11-10T03:30:25;8.00;99.90
21778;DHT22;11050;52.222;20.916;2022-11-10T03:32:51;8.10;99.90
21778;DHT22;11050;52.222;20.916;2022-11-10T03:35:17;8.10;99.90
21778;DHT22;11050;52.222;20.916;2022-11-10T03:37:42;8.10;99.90
21778;DHT22;11050;52.222;20.916;2022-11-10T03:40:09;8.10;99.90
21778;DHT22;11050;52.222;20.916;2022-11-10T03:42:35;8.10;99.90
21778;DHT22;11050;52.222;20.916;2022-11-10T03:45:01;8.10;99.90
21778;DHT22;11050;52.222;20.916;2022-11-10T03:47:26;8.20;99.90
21778;DHT22;11050;52.222;20.916;2022-11-10T03:49:52;8.20;99.90
21778;DHT22;11050;52.222;20.916;2022-11-10T03:52:19;8.20;99.90
21778;DHT22;11050;52.222;20.916;2022-11-10T03:54:44;8.20;99.90
21778;DHT22;11050;52.222;20.916;2022-11-10T03:57:10;8.20;99.90
21778;DHT22;11050;52.222;20.916;2022-11-10T03:59:36;8.20;99.90
21778;DHT22;11050;52.222;20.916;2022-11-10T04:02:01;8.20;99.90
21778;DHT22;11050;52.222;20.916;2022-11-10T04:04:27;8.30;99.90
21778;DHT22;11050;52.222;20.916;2022-11-10T04:07:12;8.20;99.90
21778;DHT22;11050;52.222;20.916;2022-11-10T04:09:56;8.30;99.90
21778;DHT22;11050;52.222;20.916;2022-11-10T04:12:22;8.30;99.90
21778;DHT22;11050;52.222;20.916;2022-11-10T04:15:11;8.30;99.90
21778;DHT22;11050;52.222;20.916;2022-11-10T04:17:56;8.40;99.90
21778;DHT22;11050;52.222;20.916;2022-11-10T04:20:44;8.40;99.90
21778;DHT22;11050;52.222;20.916;2022-11-10T04:23:11;8.40;99.90
21778;DHT22;11050;52.222;20.916;2022-11-10T04:25:56;8.40;99.90
21778;DHT22;11050;52.222;20.916;2022-11-10T04:28:49;8.40;99.90
21778;DHT22;11050;52.222;20.916;2022-11-10T04:31:21;8.50;99.90
21778;DHT22;11050;52.222;20.916;2022-11-10T04:33:48;8.50;99.90
21778;DHT22;11050;52.222;20.916;2022-11-10T04:36:19;8.50;99.90
21778;DHT22;11050;52.222;20.916;2022-11-10T04:38:46;8.50;99.90
21778;DHT22;11050;52.222;20.916;2022-11-10T04:41:13;8.60;99.90
21778;DHT22;11050;52.222;20.916;2022-11-10T04:43:41;8.60;99.90
21778;DHT22;11050;52.222;20.916;2022-11-10T04:46:22;8.60;99.90
21778;DHT22;11050;52.222;20.916;2022-11-10T04:48:50;8.70;99.90
21778;DHT22;11050;52.222;20.916;2022-11-10T04:51:18;8.70;99.90
21778;DHT22;11050;52.222;20.916;2022-11-10T04:53:45;8.70;99.90
21778;DHT22;11050;52.222;20.916;2022-11-10T04:56:21;8.70;99.90
21778;DHT22;11050;52.222;20.916;2022-11-10T04:58:49;8.70;99.90
21778;DHT22;11050;52.222;20.916;2022-11-10T05:01:18;8.70;99.90
21778;DHT22;11050;52.222;20.916;2022-11-10T05:03:46;8.70;99.90
21778;DHT22;11050;52.222;20.916;2022-11-10T05:06:13;8.70;99.90
21778;DHT22;11050;52.222;20.916;2022-11-10T05:08:40;8.80;99.90
21778;DHT22;11050;52.222;20.916;2022-11-10T05:11:07;8.70;99.90
21778;DHT22;11050;52.222;20.916;2022-11-10T05:13:34;8.80;99.90
21778;DHT22;11050;52.222;20.916;2022-11-10T05:16:00;8.70;99.90
21778;DHT22;11050;52.222;20.916;2022-11-10T05:18:25;8.70;99.90
21778;DHT22;11050;52.222;20.916;2022-11-10T05:20:51;8.70;99.90
21778;DHT22;11050;52.222;20.916;2022-11-10T05:23:18;8.70;99.90
21778;DHT22;11050;52.222;20.916;2022-11-10T05:26:15;8.70;99.90
21778;DHT22;11050;52.222;20.916;2022-11-10T05:28:43;8.70;99.90
21778;DHT22;11050;52.222;20.916;2022-11-10T05:31:10;8.70;99.90
21778;DHT22;11050;52.222;20.916;2022-11-10T05:33:40;8.70;99.90
21778;DHT22;11050;52.222;20.916;2022-11-10T05:36:06;8.70;99.90
21778;DHT22;11050;52.222;20.916;2022-11-10T05:38:32;8.70;99.90
21778;DHT22;11050;52.222;20.916;2022-11-10T05:40:58;8.70;99.90
21778;DHT22;11050;52.222;20.916;2022-11-10T05:43:24;8.70;99.90
21778;DHT22;11050;52.222;20.916;2022-11-10T05:45:50;8.70;99.90
21778;DHT22;11050;52.222;20.916;2022-11-10T05:48:16;8.70;99.90
21778;DHT22;11050;52.222;20.916;2022-11-10T05:50:43;8.70;99.90
21778;DHT22;11050;52.222;20.916;2022-11-10T05:53:09;8.70;99.90
21778;DHT22;11050;52.222;20.916;2022-11-10T05:55:36;8.70;99.90
21778;DHT22;11050;52.222;20.916;2022-11-10T05:58:01;8.70;99.90
21778;DHT22;11050;52.222;20.916;2022-11-10T06:00:28;8.70;99.90
21778;DHT22;11050;52.222;20.916;2022-11-10T06:05:27;8.70;99.90
21778;DHT22;11050;52.222;20.916;2022-11-10T06:07:55;8.70;99.90
21778;DHT22;11050;52.222;20.916;2022-11-10T06:10:21;8.70;99.90
21778;DHT22;11050;52.222;20.916;2022-11-10T06:12:47;8.70;99.90
21778;DHT22;11050;52.222;20.916;2022-11-10T06:15:13;8.70;99.90
21778;DHT22;11050;52.222;20.916;2022-11-10T06:17:40;8.70;99.90
21778;DHT22;11050;52.222;20.916;2022-11-10T06:20:06;8.70;99.90
21778;DHT22;11050;52.222;20.916;2022-11-10T06:22:32;8.70;99.90
21778;DHT22;11050;52.222;20.916;2022-11-10T06:24:58;8.70;99.90
21778;DHT22;11050;52.222;20.916;2022-11-10T06:27:24;8.70;99.90
21778;DHT22;11050;52.222;20.916;2022-11-10T06:29:50;8.70;99.90
21778;DHT22;11050;52.222;20.916;2022-11-10T06:32:15;8.70;99.90
21778;DHT22;11050;52.222;20.916;2022-11-10T06:34:41;8.80;99.90
21778;DHT22;11050;52.222;20.916;2022-11-10T06:37:07;8.70;99.90
21778;DHT22;11050;52.222;20.916;2022-11-10T06:39:32;8.80;99.90
21778;DHT22;11050;52.222;20.916;2022-11-10T06:41:58;8.80;99.90
21778;DHT22;11050;52.222;20.916;2022-11-10T06:44:24;8.80;99.90
21778;DHT22;11050;52.222;20.916;2022-11-10T06:46:51;8.80;99.90
21778;DHT22;11050;52.222;20.916;2022-11-10T06:49:17;8.80;99.90
21778;DHT22;11050;52.222;20.916;2022-11-10T06:51:43;8.90;99.90
21778;DHT22;11050;52.222;20.916;2022-11-10T06:54:09;8.90;99.90
21778;DHT22;11050;52.222;20.916;2022-11-10T06:56:35;8.90;99.90
21778;DHT22;11050;52.222;20.916;2022-11-10T06:59:00;8.90;99.90
21778;DHT22;11050;52.222;20.916;2022-11-10T07:01:26;9.00;99.90
21778;DHT22;11050;52.222;20.916;2022-11-10T07:03:52;9.00;99.90
21778;DHT22;11050;52.222;20.916;2022-11-10T07:06:19;9.00;99.90
21778;DHT22;11050;52.222;20.916;2022-11-10T07:08:46;9.00;99.90
21778;DHT22;11050;52.222;20.916;2022-11-10T07:11:13;9.10;99.90
21778;DHT22;11050;52.222;20.916;2022-11-10T07:13:38;9.10;99.90
21778;DHT22;11050;52.222;20.916;2022-11-10T07:16:05;9.10;99.90
21778;DHT22;11050;52.222;20.916;2022-11-10T07:18:33;9.20;99.90
21778;DHT22;11050;52.222;20.916;2022-11-10T07:21:02;9.20;99.90
21778;DHT22;11050;52.222;20.916;2022-11-10T07:23:29;9.20;99.90
21778;DHT22;11050;52.222;20.916;2022-11-10T07:25:58;9.20;99.90
21778;DHT22;11050;52.222;20.916;2022-11-10T07:28:24;9.20;99.90
21778;DHT22;11050;52.222;20.916;2022-11-10T07:30:50;9.30;99.90
21778;DHT22;11050;52.222;20.916;2022-11-10T07:33:15;9.30;99.90
21778;DHT22;11050;52.222;20.916;2022-11-10T07:35:41;9.30;99.90
21778;DHT22;11050;52.222;20.916;2022-11-10T07:38:10;9.30;99.90
21778;DHT22;11050;52.222;20.916;2022-11-10T07:40:37;9.40;99.90
21778;DHT22;11050;52.222;20.916;2022-11-10T07:43:03;9.40;99.90
21778;DHT22;11050;52.222;20.916;2022-11-10T07:45:31;9.40;99.90
21778;DHT22;11050;52.222;20.916;2022-11-10T07:48:03;9.40;99.90
21778;DHT22;11050;52.222;20.916;2022-11-10T07:50:31;9.50;99.90
21778;DHT22;11050;52.222;20.916;2022-11-10T07:53:17;9.50;99.90
21778;DHT22;11050;52.222;20.916;2022-11-10T07:55:44;9.50;99.90
21778;DHT22;11050;52.222;20.916;2022-11-10T07:58:12;9.50;99.90
21778;DHT22;11050;52.222;20.916;2022-11-10T08:00:41;9.60;99.90
21778;DHT22;11050;52.222;20.916;2022-11-10T08:03:18;9.60;99.90
21778;DHT22;11050;52.222;20.916;2022-11-10T08:05:45;9.60;99.90
21778;DHT22;11050;52.222;20.916;2022-11-10T08:08:12;9.60;99.90
21778;DHT22;11050;52.222;20.916;2022-11-10T08:10:39;9.60;99.90
21778;DHT22;11050;52.222;20.916;2022-11-10T08:13:07;9.70;99.90
21778;DHT22;11050;52.222;20.916;2022-11-10T08:15:35;9.70;99.90
21778;DHT22;11050;52.222;20.916;2022-11-10T08:18:03;9.70;99.90
21778;DHT22;11050;52.222;20.916;2022-11-10T08:20:42;9.70;99.90
21778;DHT22;11050;52.222;20.916;2022-11-10T08:23:08;9.80;99.90
21778;DHT22;11050;52.222;20.916;2022-11-10T08:25:35;9.80;99.90
21778;DHT22;11050;52.222;20.916;2022-11-10T08:28:03;9.80;99.90
21778;DHT22;11050;52.222;20.916;2022-11-10T08:30:29;9.80;99.90
21778;DHT22;11050;52.222;20.916;2022-11-10T08:32:58;9.80;99.90
21778;DHT22;11050;52.222;20.916;2022-11-10T08:35:27;9.80;99.90
21778;DHT22;11050;52.222;20.916;2022-11-10T08:37:55;9.80;99.90
21778;DHT22;11050;52.222;20.916;2022-11-10T08:40:22;9.90;99.90
21778;DHT22;11050;52.222;20.916;2022-11-10T08:42:59;9.90;99.90
21778;DHT22;11050;52.222;20.916;2022-11-10T08:45:26;9.90;99.90
21778;DHT22;11050;52.222;20.916;2022-11-10T08:47:57;9.90;99.90
21778;DHT22;11050;52.222;20.916;2022-11-10T08:50:25;9.90;99.90
21778;DHT22;11050;52.222;20.916;2022-11-10T08:52:51;10.00;99.90
21778;DHT22;11050;52.222;20.916;2022-11-10T08:55:17;10.00;99.90
21778;DHT22;11050;52.222;20.916;2022-11-10T08:57:45;10.00;99.90
21778;DHT22;11050;52.222;20.916;2022-11-10T09:00:12;10.10;99.90
21778;DHT22;11050;52.222;20.916;2022-11-10T09:02:39;10.10;99.90
21778;DHT22;11050;52.222;20.916;2022-11-10T09:05:05;10.00;99.90
21778;DHT22;11050;52.222;20.916;2022-11-10T09:07:41;10.10;99.90
21778;DHT22;11050;52.222;20.916;2022-11-10T09:10:11;10.10;99.90
21778;DHT22;11050;52.222;20.916;2022-11-10T09:12:39;10.10;99.90
21778;DHT22;11050;52.222;20.916;2022-11-10T09:15:06;10.10;99.90
21778;DHT22;11050;52.222;20.916;2022-11-10T09:17:33;10.10;99.90
21778;DHT22;11050;52.222;20.916;2022-11-10T09:19:59;10.10;99.90
21778;DHT22;11050;52.222;20.916;2022-11-10T09:22:25;10.10;99.90
21778;DHT22;11050;52.222;20.916;2022-11-10T09:24:50;10.20;99.90
21778;DHT22;11050;52.222;20.916;2022-11-10T09:27:16;10.20;99.90
21778;DHT22;11050;52.222;20.916;2022-11-10T09:29:42;10.20;99.90
21778;DHT22;11050;52.222;20.916;2022-11-10T09:32:08;10.20;99.90
21778;DHT22;11050;52.222;20.916;2022-11-10T09:34:34;10.30;99.90
21778;DHT22;11050;52.222;20.916;2022-11-10T09:36:59;10.20;99.90
21778;DHT22;11050;52.222;20.916;2022-11-10T09:39:25;10.30;99.90
21778;DHT22;11050;52.222;20.916;2022-11-10T09:41:51;10.30;99.90
21778;DHT22;11050;52.222;20.916;2022-11-10T09:47:23;10.40;99.90
21778;DHT22;11050;52.222;20.916;2022-11-10T09:49:58;10.40;99.90
21778;DHT22;11050;52.222;20.916;2022-11-10T09:52:29;10.40;99.90
21778;DHT22;11050;52.222;20.916;2022-11-10T09:55:13;10.40;99.90
21778;DHT22;11050;52.222;20.916;2022-11-10T09:57:57;10.50;99.90
21778;DHT22;11050;52.222;20.916;2022-11-10T10:00:25;10.40;99.90
21778;DHT22;11050;52.222;20.916;2022-11-10T10:02:59;10.50;99.90
21778;DHT22;11050;52.222;20.916;2022-11-10T10:08:07;10.50;99.90
21778;DHT22;11050;52.222;20.916;2022-11-10T10:10:55;10.50;99.90
21778;DHT22;11050;52.222;20.916;2022-11-10T10:17:16;10.60;99.90
21778;DHT22;11050;52.222;20.916;2022-11-10T10:25:51;10.80;99.90
21778;DHT22;11050;52.222;20.916;2022-11-10T10:30:43;10.80;99.90
21778;DHT22;11050;52.222;20.916;2022-11-10T10:33:20;10.80;99.90
21778;DHT22;11050;52.222;20.916;2022-11-10T10:35:48;10.90;99.90
21778;DHT22;11050;52.222;20.916;2022-11-10T10:38:36;11.00;99.90
21778;DHT22;11050;52.222;20.916;2022-11-10T10:41:25;11.00;99.90
21778;DHT22;11050;52.222;20.916;2022-11-10T10:43:55;11.10;99.90
21778;DHT22;11050;52.222;20.916;2022-11-10T10:46:23;11.10;99.90
21778;DHT22;11050;52.222;20.916;2022-11-10T10:51:48;11.20;99.90
21778;DHT22;11050;52.222;20.916;2022-11-10T10:54:35;11.20;99.90
21778;DHT22;11050;52.222;20.916;2022-11-10T10:57:23;11.30;99.90
21778;DHT22;11050;52.222;20.916;2022-11-10T11:00:11;11.30;99.90
21778;DHT22;11050;52.222;20.916;2022-11-10T11:03:03;11.40;99.90
21778;DHT22;11050;52.222;20.916;2022-11-10T11:05:32;11.40;99.90
21778;DHT22;11050;52.222;20.916;2022-11-10T11:08:00;11.50;99.90
21778;DHT22;11050;52.222;20.916;2022-11-10T11:10:44;11.50;99.90
21778;DHT22;11050;52.222;20.916;2022-11-10T11:13:23;11.50;99.90
21778;DHT22;11050;52.222;20.916;2022-11-10T11:16:00;11.50;99.90
21778;DHT22;11050;52.222;20.916;2022-11-10T11:18:30;11.50;99.90
21778;DHT22;11050;52.222;20.916;2022-11-10T11:21:01;11.50;99.90
21778;DHT22;11050;52.222;20.916;2022-11-10T11:23:58;11.50;99.90
21778;DHT22;11050;52.222;20.916;2022-11-10T11:29:23;11.60;99.90
21778;DHT22;11050;52.222;20.916;2022-11-10T11:35:00;11.70;99.90
21778;DHT22;11050;52.222;20.916;2022-11-10T11:49:01;11.70;99.90
21778;DHT22;11050;52.222;20.916;2022-11-10T11:57:42;11.90;99.90
21778;DHT22;11050;52.222;20.916;2022-11-10T12:00:17;11.90;99.90
21778;DHT22;11050;52.222;20.916;2022-11-10T12:03:12;12.00;99.90
21778;DHT22;11050;52.222;20.916;2022-11-10T12:15:00;12.20;99.90
21778;DHT22;11050;52.222;20.916;2022-11-10T12:18:12;12.20;99.90
21778;DHT22;11050;52.222;20.916;2022-11-10T12:23:49;12.30;99.90
21778;DHT22;11050;52.222;20.916;2022-11-10T12:26:45;12.20;99.90
21778;DHT22;11050;52.222;20.916;2022-11-10T12:30:02;12.20;99.90
21778;DHT22;11050;52.222;20.916;2022-11-10T12:32:16;12.20;99.90
21778;DHT22;11050;52.222;20.916;2022-11-10T12:34:55;12.20;99.90
21778;DHT22;11050;52.222;20.916;2022-11-10T12:37:49;12.20;99.90
21778;DHT22;11050;52.222;20.916;2022-11-10T12:40:30;12.10;99.90
21778;DHT22;11050;52.222;20.916;2022-11-10T12:43:05;12.10;99.90
21778;DHT22;11050;52.222;20.916;2022-11-10T12:45:41;12.10;99.90
21778;DHT22;11050;52.222;20.916;2022-11-10T12:48:11;12.10;99.90
21778;DHT22;11050;52.222;20.916;2022-11-10T12:51:08;12.00;99.90
21778;DHT22;11050;52.222;20.916;2022-11-10T12:53:42;12.00;99.90
21778;DHT22;11050;52.222;20.916;2022-11-10T12:56:13;12.00;99.90
21778;DHT22;11050;52.222;20.916;2022-11-10T12:58:43;12.00;99.90
21778;DHT22;11050;52.222;20.916;2022-11-10T13:01:17;11.90;99.90
21778;DHT22;11050;52.222;20.916;2022-11-10T13:03:56;12.00;99.90
21778;DHT22;11050;52.222;20.916;2022-11-10T13:06:31;11.90;99.90
21778;DHT22;11050;52.222;20.916;2022-11-10T13:09:02;11.90;99.90
21778;DHT22;11050;52.222;20.916;2022-11-10T13:11:32;12.00;99.90
21778;DHT22;11050;52.222;20.916;2022-11-10T13:14:01;11.90;99.90
21778;DHT22;11050;52.222;20.916;2022-11-10T13:29:58;12.00;99.90
21778;DHT22;11050;52.222;20.916;2022-11-10T13:32:34;11.90;99.90
21778;DHT22;11050;52.222;20.916;2022-11-10T13:37:53;11.90;99.90
21778;DHT22;11050;52.222;20.916;2022-11-10T13:56:23;11.70;99.90
21778;DHT22;11050;52.222;20.916;2022-11-10T13:59:19;11.70;99.90
21778;DHT22;11050;52.222;20.916;2022-11-10T14:01:49;11.60;99.90
21778;DHT22;11050;52.222;20.916;2022-11-10T14:04:38;11.70;99.90
21778;DHT22;11050;52.222;20.916;2022-11-10T14:07:14;11.60;99.90
21778;DHT22;11050;52.222;20.916;2022-11-10T14:09:46;11.60;99.90
21778;DHT22;11050;52.222;20.916;2022-11-10T14:15:21;11.60;99.90
21778;DHT22;11050;52.222;20.916;2022-11-10T14:17:51;11.70;99.90
21778;DHT22;11050;52.222;20.916;2022-11-10T14:22:52;11.50;99.90
21778;DHT22;11050;52.222;20.916;2022-11-10T14:25:26;11.50;99.90
21778;DHT22;11050;52.222;20.916;2022-11-10T14:28:00;11.40;99.90
21778;DHT22;11050;52.222;20.916;2022-11-10T14:30:28;11.30;99.90
21778;DHT22;11050;52.222;20.916;2022-11-10T14:32:59;11.30;99.90
21778;DHT22;11050;52.222;20.916;2022-11-10T14:38:23;11.10;99.90
21778;DHT22;11050;52.222;20.916;2022-11-10T14:40:54;11.10;99.90
21778;DHT22;11050;52.222;20.916;2022-11-10T14:43:37;11.00;99.90
21778;DHT22;11050;52.222;20.916;2022-11-10T14:46:06;10.90;99.90
21778;DHT22;11050;52.222;20.916;2022-11-10T14:48:34;10.90;99.90
21778;DHT22;11050;52.222;20.916;2022-11-10T14:51:11;10.80;99.90
21778;DHT22;11050;52.222;20.916;2022-11-10T14:53:46;10.70;99.90
21778;DHT22;11050;52.222;20.916;2022-11-10T14:56:16;10.60;99.90
21778;DHT22;11050;52.222;20.916;2022-11-10T14:58:47;10.50;99.90
21778;DHT22;11050;52.222;20.916;2022-11-10T15:01:33;10.40;99.90
21778;DHT22;11050;52.222;20.916;2022-11-10T15:04:05;10.40;99.90
21778;DHT22;11050;52.222;20.916;2022-11-10T15:06:35;10.30;99.90
21778;DHT22;11050;52.222;20.916;2022-11-10T15:09:33;10.30;99.90
21778;DHT22;11050;52.222;20.916;2022-11-10T15:17:05;10.10;99.90
21778;DHT22;11050;52.222;20.916;2022-11-10T15:24:43;9.90;99.90
21778;DHT22;11050;52.222;20.916;2022-11-10T15:27:25;9.90;99.90
21778;DHT22;11050;52.222;20.916;2022-11-10T15:29:53;9.90;99.90
21778;DHT22;11050;52.222;20.916;2022-11-10T15:32:23;9.90;99.90
21778;DHT22;11050;52.222;20.916;2022-11-10T15:38:25;9.90;99.90
21778;DHT22;11050;52.222;20.916;2022-11-10T15:41:11;9.90;99.90
21778;DHT22;11050;52.222;20.916;2022-11-10T15:43:38;9.80;99.90
21778;DHT22;11050;52.222;20.916;2022-11-10T15:46:17;9.80;99.90
21778;DHT22;11050;52.222;20.916;2022-11-10T15:48:48;9.80;99.90
21778;DHT22;11050;52.222;20.916;2022-11-10T15:51:18;9.80;99.90
21778;DHT22;11050;52.222;20.916;2022-11-10T15:53:46;9.80;99.90
21778;DHT22;11050;52.222;20.916;2022-11-10T15:56:22;9.80;99.90
21778;DHT22;11050;52.222;20.916;2022-11-10T15:58:50;9.70;99.90
21778;DHT22;11050;52.222;20.916;2022-11-10T16:01:18;9.80;99.90
21778;DHT22;11050;52.222;20.916;2022-11-10T16:03:45;9.70;99.90
21778;DHT22;11050;52.222;20.916;2022-11-10T16:06:15;9.70;99.90
21778;DHT22;11050;52.222;20.916;2022-11-10T16:08:41;9.70;99.90
21778;DHT22;11050;52.222;20.916;2022-11-10T16:11:17;9.70;99.90
21778;DHT22;11050;52.222;20.916;2022-11-10T16:13:46;9.80;99.90
21778;DHT22;11050;52.222;20.916;2022-11-10T16:16:15;9.80;99.90
21778;DHT22;11050;52.222;20.916;2022-11-10T16:18:42;9.80;99.90
21778;DHT22;11050;52.222;20.916;2022-11-10T16:21:22;9.90;99.90
21778;DHT22;11050;52.222;20.916;2022-11-10T16:23:49;9.90;99.90
21778;DHT22;11050;52.222;20.916;2022-11-10T16:26:18;10.00;99.90
21778;DHT22;11050;52.222;20.916;2022-11-10T16:28:46;10.00;99.90
21778;DHT22;11050;52.222;20.916;2022-11-10T16:31:17;10.00;99.90
21778;DHT22;11050;52.222;20.916;2022-11-10T16:33:45;10.00;99.90
21778;DHT22;11050;52.222;20.916;2022-11-10T16:36:31;10.00;99.90
21778;DHT22;11050;52.222;20.916;2022-11-10T16:39:03;10.00;99.90
21778;DHT22;11050;52.222;20.916;2022-11-10T16:41:36;10.00;99.90
21778;DHT22;11050;52.222;20.916;2022-11-10T16:44:02;10.00;99.90
21778;DHT22;11050;52.222;20.916;2022-11-10T16:46:29;10.00;99.90
21778;DHT22;11050;52.222;20.916;2022-11-10T16:48:57;9.90;99.90
21778;DHT22;11050;52.222;20.916;2022-11-10T16:51:28;9.90;99.90
21778;DHT22;11050;52.222;20.916;2022-11-10T16:53:58;9.90;99.90
21778;DHT22;11050;52.222;20.916;2022-11-10T16:56:24;9.90;99.90
21778;DHT22;11050;52.222;20.916;2022-11-10T16:58:51;9.80;99.90
21778;DHT22;11050;52.222;20.916;2022-11-10T17:01:28;9.80;99.90
21778;DHT22;11050;52.222;20.916;2022-11-10T17:03:59;9.80;99.90
21778;DHT22;11050;52.222;20.916;2022-11-10T17:06:30;9.80;99.90
21778;DHT22;11050;52.222;20.916;2022-11-10T17:09:08;9.70;99.90
21778;DHT22;11050;52.222;20.916;2022-11-10T17:11:38;9.70;99.90
21778;DHT22;11050;52.222;20.916;2022-11-10T17:14:04;9.60;99.90
21778;DHT22;11050;52.222;20.916;2022-11-10T17:16:35;9.60;99.90
21778;DHT22;11050;52.222;20.916;2022-11-10T17:19:04;9.50;99.90
21778;DHT22;11050;52.222;20.916;2022-11-10T17:21:33;9.50;99.90
21778;DHT22;11050;52.222;20.916;2022-11-10T17:24:01;9.50;99.90
21778;DHT22;11050;52.222;20.916;2022-11-10T17:26:28;9.40;99.90
21778;DHT22;11050;52.222;20.916;2022-11-10T17:28:55;9.40;99.90
21778;DHT22;11050;52.222;20.916;2022-11-10T17:31:20;9.30;99.90
21778;DHT22;11050;52.222;20.916;2022-11-10T17:33:46;9.30;99.90
21778;DHT22;11050;52.222;20.916;2022-11-10T17:36:22;9.20;99.90
21778;DHT22;11050;52.222;20.916;2022-11-10T17:38:49;9.20;99.90
21778;DHT22;11050;52.222;20.916;2022-11-10T17:41:18;9.10;99.90